Time;durP1;ratioP1;P1;durP2;ratioP2;P2;SDS_P1;SDS_P2;PMS_P1;PMS_P2;Temp;Humidity;BMP_temperature;BMP_pressure;BME280_temperature;BME280_humidity;BME280_pressure;Samples;Min_cycle;Max_cycle;Signal;HPM_P1;HPM_P2
2022/11/23 14:35:10;;;;;;;;;;;;;;;;;;;;;
2022/11/23 14:39:03;;;;;;;0.95;0.60;;;;;;;-145.06;0.00;60892.56;5861218;23;20046;-92
2022/11/23 14:49:59;;;;;;;;;;;;;;;;;;;;;
2022/11/23 15:11:35;;;;;;;0.50;0.50;;;;;;;-145.06;0.00;60892.56;5955252;23;20017;-91
2022/11/23 15:14:25;;;;;;;0.50;0.40;;;;;;;-145.06;0.00;60892.56;5957156;23;20005;-91
2022/11/23 15:17:21;;;;;;;1.92;0.65;;;;;;;-145.06;0.00;60892.56;5955824;23;20005;-92
2022/11/23 15:24:18;;;;;;;0.85;0.57;;;;;;;-145.06;0.00;60892.56;5988291;23;20008;-93
2022/11/23 15:27:38;;;;;;;0.65;0.50;;;;;;;-145.06;0.00;60892.56;5977175;23;20005;-93
2022/11/23 15:30:39;;;;;;;;;;;;;;;-145.06;0.00;60892.56;5956500;23;20459;-95
2022/11/23 15:33:21;;;;;;;1.35;0.75;;;;;;;-145.06;0.00;60892.56;5955969;23;19986;-92
2022/11/23 15:36:06;;;;;;;1.98;0.82;;;;;;;-145.06;0.00;60892.56;5955058;23;20005;-95
2022/11/23 15:38:46;;;;;;;0.98;0.60;;;;;;;-145.06;0.00;60892.56;5955563;23;20004;-94
2022/11/23 15:41:27;;;;;;;0.70;0.70;;;;;;;-145.06;0.00;60892.56;5957834;23;20317;-92
2022/11/23 15:44:38;;;;;;;1.15;0.77;;;;;;;-145.06;0.00;60892.56;5956498;23;20009;-92
2022/11/23 15:47:26;;;;;;;1.42;0.73;;;;;;;-145.06;0.00;60892.56;5957012;23;20064;-92
2022/11/23 15:50:14;;;;;;;1.77;0.90;;;;;;;-145.06;0.00;60892.56;5957208;23;20033;-92
2022/11/23 15:52:54;;;;;;;1.80;1.13;;;;;;;-145.06;0.00;60892.56;5955986;23;20009;-93
2022/11/23 15:55:40;;;;;;;2.35;0.70;;;;;;;-145.06;0.00;60892.56;5954975;23;20005;-92
2022/11/23 15:58:34;;;;;;;1.30;0.70;;;;;;;-145.06;0.00;60892.56;5957808;23;20005;-94
2022/11/23 16:01:44;;;;;;;1.00;0.60;;;;;;;-145.06;0.00;60892.56;5956205;23;20005;-93
2022/11/23 16:04:44;;;;;;;1.77;0.90;;;;;;;-145.06;0.00;60892.56;5955547;23;20005;-93
2022/11/23 16:07:24;;;;;;;;;;;;;;;-145.06;0.00;60892.56;5956300;23;20021;-92
2022/11/23 16:10:10;;;;;;;;;;;;;;;-145.06;0.00;60892.56;5956396;23;19904;-94
2022/11/23 16:13:04;;;;;;;1.60;0.68;;;;;;;-145.06;0.00;60892.56;5954085;23;20220;-91
2022/11/23 16:15:57;;;;;;;0.40;0.40;;;;;;;-145.06;0.00;60892.56;5957834;23;20033;-92
2022/11/23 16:18:46;;;;;;;1.20;0.70;;;;;;;-145.06;0.00;60892.56;5957683;23;20005;-93
2022/11/23 16:21:25;;;;;;;0.50;0.32;;;;;;;-145.06;0.00;60892.56;5955119;23;20005;-92
2022/11/23 16:24:04;;;;;;;0.68;0.45;;;;;;;-145.06;0.00;60892.56;5957337;23;20435;-91
2022/11/23 16:26:54;;;;;;;0.40;0.35;;;;;;;-145.06;0.00;60892.56;5958904;23;20005;-92
2022/11/23 16:29:38;;;;;;;0.40;0.38;;;;;;;-145.06;0.00;60892.56;5955866;23;20009;-93
2022/11/23 16:32:34;;;;;;;0.43;0.30;;;;;;;-145.06;0.00;60892.56;5958707;23;20091;-92
2022/11/23 16:35:39;;;;;;;;;;;;;;;;;;;;;
2022/11/23 16:38:30;;;;;;;0.50;0.30;;;;;;;-145.06;0.00;60892.56;5990173;23;20005;-93
2022/11/23 16:41:10;;;;;;;0.30;0.30;;;;;;;-145.06;0.00;60892.56;5959732;23;20009;-93
2022/11/23 16:43:53;;;;;;;1.47;0.50;;;;;;;-145.06;0.00;60892.56;5956363;23;20029;-92
2022/11/23 16:46:33;;;;;;;0.40;0.30;;;;;;;-145.06;0.00;60892.56;5955928;23;20229;-93
2022/11/23 16:49:18;;;;;;;0.40;0.30;;;;;;;-145.06;0.00;60892.56;5954537;23;20428;-90
2022/11/23 16:51:57;;;;;;;0.30;0.30;;;;;;;-145.06;0.00;60892.56;5956453;23;20009;-91
2022/11/23 16:54:36;;;;;;;0.20;0.20;;;;;;;-145.06;0.00;60892.56;5955492;23;20009;-93
2022/11/23 16:57:27;;;;;;;0.67;0.50;;;;;;;-145.06;0.00;60892.56;5975298;23;20076;-92
2022/11/23 17:00:14;;;;;;;0.85;0.40;;;;;;;-145.06;0.00;60892.56;5957767;23;20008;-92
2022/11/23 17:02:53;;;;;;;0.52;0.40;;;;;;;-145.06;0.00;60892.56;5977734;23;20001;-92
2022/11/23 17:05:32;;;;;;;0.68;0.47;;;;;;;-145.06;0.00;60892.56;5953852;23;20317;-92
2022/11/23 17:08:12;;;;;;;0.80;0.52;;;;;;;-145.06;0.00;60892.56;5956845;23;20009;-92
2022/11/23 17:10:51;;;;;;;0.60;0.50;;;;;;;-145.06;0.00;60892.56;5955935;23;20005;-91
2022/11/23 17:13:30;;;;;;;0.60;0.60;;;;;;;-145.06;0.00;60892.56;5953326;23;20013;-92
2022/11/23 17:16:13;;;;;;;2.73;0.30;;;;;;;-145.06;0.00;60892.56;5955746;23;20033;-91
2022/11/23 17:18:53;;;;;;;0.50;0.38;;;;;;;-145.06;0.00;60892.56;5955732;23;20009;-92
2022/11/23 17:21:35;;;;;;;0.52;0.45;;;;;;;-145.06;0.00;60892.56;5953527;23;20009;-92
2022/11/23 17:24:14;;;;;;;0.85;0.30;;;;;;;-145.06;0.00;60892.56;5953615;23;20005;-90
2022/11/23 17:26:53;;;;;;;0.93;0.60;;;;;;;-145.06;0.00;60892.56;5976833;23;20005;-92
2022/11/23 17:29:32;;;;;;;0.90;0.50;;;;;;;-145.06;0.00;60892.56;5974465;23;20009;-91
2022/11/23 17:32:13;;;;;;;0.50;0.50;;;;;;;-145.06;0.00;60892.56;5951380;23;20091;-92
2022/11/23 17:34:52;;;;;;;0.98;0.70;;;;;;;-145.06;0.00;60892.56;5975096;23;20017;-92
2022/11/23 17:37:31;;;;;;;0.82;0.70;;;;;;;-145.06;0.00;60892.56;5954745;23;20009;-91
2022/11/23 17:40:19;;;;;;;1.13;0.60;;;;;;;-145.06;0.00;60892.56;5952615;23;20009;-91
2022/11/23 17:42:58;;;;;;;0.93;0.70;;;;;;;-145.06;0.00;60892.56;5953081;23;20237;-92
2022/11/23 17:45:38;;;;;;;1.15;0.80;;;;;;;-145.06;0.00;60892.56;5955002;23;20289;-92
2022/11/23 17:48:38;;;;;;;0.80;0.52;;;;;;;-145.06;0.00;60892.56;5986603;23;20005;-92
2022/11/23 17:51:17;;;;;;;;;;;;;;;-145.06;0.00;60892.56;5976899;23;20009;-92
2022/11/23 17:54:08;;;;;;;0.82;0.40;;;;;;;-145.06;0.00;60892.56;5957223;23;19904;-92
2022/11/23 17:56:51;;;;;;;1.20;0.52;;;;;;;-145.06;0.00;60892.56;5953092;23;20001;-94
2022/11/23 17:59:31;;;;;;;0.38;0.38;;;;;;;-145.06;0.00;60892.56;5954840;23;20447;-92
2022/11/23 18:02:10;;;;;;;0.65;0.50;;;;;;;-145.06;0.00;60892.56;5955634;23;20013;-93
2022/11/23 18:05:09;;;;;;;1.27;0.52;;;;;;;-145.06;0.00;60892.56;5955724;23;20009;-92
2022/11/23 18:08:02;;;;;;;0.57;0.52;;;;;;;-145.06;0.00;60892.56;5954564;23;20005;-91
2022/11/23 18:10:42;;;;;;;1.05;0.47;;;;;;;-145.06;0.00;60892.56;5955566;23;20005;-92
2022/11/23 18:13:21;;;;;;;0.40;0.40;;;;;;;-145.06;0.00;60892.56;5957314;23;20041;-91
2022/11/23 18:16:22;;;;;;;1.20;0.60;;;;;;;-145.06;0.00;60892.56;5953956;23;20005;-93
2022/11/23 18:19:04;;;;;;;0.50;0.40;;;;;;;-145.06;0.00;60892.56;5955416;23;20084;-93
2022/11/23 18:21:44;;;;;;;0.50;0.38;;;;;;;-145.06;0.00;60892.56;5956271;23;20005;-94
2022/11/23 18:24:49;;;;;;;0.85;0.55;;;;;;;-145.06;0.00;60892.56;5954642;23;20028;-92
2022/11/23 18:27:28;;;;;;;1.05;0.40;;;;;;;-145.06;0.00;60892.56;5976292;23;20005;-92
2022/11/23 18:30:08;;;;;;;0.75;0.52;;;;;;;-145.06;0.00;60892.56;5957122;23;20009;-92
2022/11/23 18:32:57;;;;;;;1.10;0.55;;;;;;;-145.06;0.00;60892.56;5954923;23;20032;-93
2022/11/23 18:43:37;;;;;;;;;;;;;;;-145.06;0.00;60892.56;5873851;23;20007;-91
2022/11/23 18:46:25;;;;;;;1.92;0.60;;;;;;;-145.06;0.00;60892.56;5861652;23;19913;-93
2022/11/23 18:49:26;;;;;;;0.90;0.60;;;;;;;-145.06;0.00;60892.56;5844605;23;20265;-92
2022/11/23 18:52:41;;;;;;;3.58;1.00;;;;;;;-145.06;0.00;60892.56;5844027;23;20011;-91
2022/11/23 19:07:32;;;;;;;;;;;;;;;;;;;;;
2022/11/23 19:14:37;;;;;;;1.75;0.80;;;;;;;-145.06;0.00;60892.56;5859683;23;20610;-91
2022/11/23 19:24:58;;;;;;;2.65;1.10;;;;;;;-145.06;0.00;60892.56;5991552;23;20057;-92
2022/11/23 19:28:06;;;;;;;4.40;1.10;;;;;;;-145.06;0.00;60892.56;5870970;23;20449;-91
2022/11/23 19:34:56;;;;;;;2.60;1.10;;;;;;;-145.06;0.00;60892.56;5894248;23;20583;-92
2022/11/23 19:42:08;;;;;;;2.30;1.00;;;;;;;-145.06;0.00;60892.56;5905831;23;20002;-94
2022/11/23 20:15:55;;;;;;;12.25;6.60;;;;;;;-145.06;0.00;60892.56;5659138;24;20018;-91
2022/11/23 20:23:15;;;;;;;11.00;5.60;;;;;;;-145.06;0.00;60892.56;5685039;24;20014;-92
2022/11/23 20:33:59;;;;;;;6.65;3.78;;;;;;;-145.06;0.00;60892.56;5789409;24;20024;-92
2022/11/23 20:37:22;;;;;;;;;;;;;;;;;;;;;
2022/11/23 20:40:34;;;;;;;18.20;10.70;;;;;;;-145.06;0.00;60892.56;5872609;23;20007;-91
